createdAt,value
2023-01-27T00:01:09.641Z,28.85
2023-01-27T00:03:37.764Z,30.30
2023-01-27T00:06:06.612Z,30.42
2023-01-27T00:08:34.726Z,30.02
2023-01-27T00:11:21.326Z,30.20
2023-01-27T00:13:49.413Z,30.63
2023-01-27T00:16:17.268Z,30.65
2023-01-27T00:18:45.298Z,32.05
2023-01-27T00:21:31.752Z,33.13
2023-01-27T00:24:18.320Z,30.85
2023-01-27T00:26:45.973Z,31.73
2023-01-27T00:29:13.919Z,31.38
2023-01-27T00:32:00.292Z,35.05
2023-01-27T00:34:28.273Z,36.17
2023-01-27T00:36:55.929Z,34.10
2023-01-27T00:39:23.859Z,33.35
2023-01-27T00:41:51.528Z,33.80
2023-01-27T00:44:19.661Z,33.50
2023-01-27T00:46:47.413Z,34.08
2023-01-27T00:49:15.795Z,34.42
2023-01-27T00:51:43.715Z,35.35
2023-01-27T00:54:12.211Z,35.28
2023-01-27T00:56:39.940Z,36.65
2023-01-27T00:59:07.891Z,35.55
2023-01-27T01:01:35.737Z,37.05
2023-01-27T01:04:04.341Z,36.55
2023-01-27T01:06:32.267Z,34.28
2023-01-27T01:09:00.369Z,36.05
2023-01-27T01:11:28.162Z,37.13
2023-01-27T01:13:56.806Z,37.83
2023-01-27T01:16:25.692Z,36.67
2023-01-27T01:18:54.070Z,38.08
2023-01-27T01:21:22.470Z,37.78
2023-01-27T01:23:50.538Z,35.00
2023-01-27T01:26:18.648Z,35.47
2023-01-27T01:28:47.074Z,36.58
2023-01-27T01:31:20.038Z,34.33
2023-01-27T01:33:49.085Z,36.25
2023-01-27T01:36:19.553Z,33.40
2023-01-27T01:38:48.540Z,36.03
2023-01-27T01:41:20.526Z,34.55
2023-01-27T01:43:50.265Z,36.17
2023-01-27T01:46:19.153Z,30.15
2023-01-27T01:48:49.632Z,36.42
2023-01-27T01:51:29.296Z,36.05
2023-01-27T01:54:38.703Z,33.15
2023-01-27T01:57:29.690Z,34.38
2023-01-27T02:00:06.966Z,33.25
2023-01-27T02:02:42.251Z,36.13
2023-01-27T02:05:14.325Z,33.10
2023-01-27T02:08:01.495Z,35.17
2023-01-27T02:10:29.708Z,34.55
2023-01-27T02:12:57.444Z,34.33
2023-01-27T02:15:25.868Z,35.15
2023-01-27T02:17:54.021Z,34.38
2023-01-27T02:20:50.139Z,33.83
2023-01-27T02:23:27.796Z,34.92
2023-01-27T02:26:10.433Z,35.22
2023-01-27T02:28:38.174Z,33.47
2023-01-27T02:31:06.174Z,36.20
2023-01-27T02:33:35.124Z,35.35
2023-01-27T02:36:10.827Z,33.35
2023-01-27T02:38:51.434Z,32.88
2023-01-27T02:41:26.594Z,32.38
2023-01-27T02:43:55.962Z,34.58
2023-01-27T02:46:23.983Z,33.53
2023-01-27T02:48:52.065Z,31.85
2023-01-27T02:51:20.382Z,33.25
2023-01-27T02:53:49.292Z,32.22
2023-01-27T02:56:17.346Z,33.05
2023-01-27T02:58:45.337Z,30.58
2023-01-27T03:01:17.684Z,33.63
2023-01-27T03:03:47.464Z,31.17
2023-01-27T03:06:20.725Z,32.88
2023-01-27T03:08:48.908Z,32.15
2023-01-27T03:11:40.131Z,30.60
2023-01-27T03:14:09.011Z,30.73
2023-01-27T03:16:55.544Z,31.80
2023-01-27T03:19:23.240Z,31.42
2023-01-27T03:21:52.840Z,31.52
2023-01-27T03:24:22.879Z,31.15
2023-01-27T03:26:55.657Z,30.20
2023-01-27T03:30:05.135Z,31.45
2023-01-27T03:32:33.887Z,31.33
2023-01-27T03:35:38.865Z,31.10
2023-01-27T03:38:30.967Z,31.88
2023-01-27T03:41:17.417Z,29.60
2023-01-27T03:44:04.117Z,30.75
2023-01-27T03:46:32.900Z,32.00
2023-01-27T03:49:01.099Z,32.58
2023-01-27T03:51:28.769Z,33.38
2023-01-27T03:53:56.747Z,32.50
2023-01-27T03:56:24.593Z,31.67
2023-01-27T03:58:52.608Z,32.65
2023-01-27T04:01:23.046Z,32.80
2023-01-27T04:04:10.898Z,31.90
2023-01-27T04:07:14.063Z,32.00
2023-01-27T04:09:42.011Z,31.75
2023-01-27T04:12:10.907Z,33.17
2023-01-27T04:14:43.079Z,31.50
2023-01-27T04:17:18.034Z,32.22
2023-01-27T04:19:47.104Z,32.33
2023-01-27T04:22:16.273Z,32.53
2023-01-27T04:24:44.589Z,31.52
2023-01-27T04:27:15.673Z,33.25
2023-01-27T04:29:43.811Z,30.55
2023-01-27T04:32:13.477Z,32.45
2023-01-27T04:34:42.297Z,31.90
2023-01-27T04:37:10.594Z,32.58
2023-01-27T04:39:38.761Z,33.13
2023-01-27T04:42:06.452Z,34.33
2023-01-27T04:44:34.463Z,32.50
2023-01-27T04:47:02.076Z,30.38
2023-01-27T04:49:29.954Z,32.05
2023-01-27T04:51:57.650Z,31.13
2023-01-27T04:54:25.559Z,31.77
2023-01-27T04:56:59.292Z,31.08
2023-01-27T04:59:27.940Z,31.85
2023-01-27T05:01:55.802Z,31.92
2023-01-27T05:04:26.300Z,29.92
2023-01-27T05:06:54.622Z,32.30
2023-01-27T05:09:22.839Z,31.23
2023-01-27T05:11:50.709Z,33.67
2023-01-27T05:14:18.753Z,31.88
2023-01-27T05:16:46.486Z,32.58
2023-01-27T05:19:14.504Z,32.05
2023-01-27T05:21:43.399Z,31.50
2023-01-27T05:24:12.023Z,31.90
2023-01-27T05:26:40.699Z,33.15
2023-01-27T05:29:10.198Z,31.83
2023-01-27T05:31:38.352Z,32.83
2023-01-27T05:34:06.736Z,33.88
2023-01-27T05:36:34.797Z,33.15
2023-01-27T05:39:02.732Z,31.17
2023-01-27T05:41:31.557Z,31.63
2023-01-27T05:44:00.174Z,31.80
2023-01-27T05:46:29.998Z,31.33
2023-01-27T05:49:01.573Z,33.10
2023-01-27T05:51:35.127Z,32.70
2023-01-27T05:54:03.979Z,31.38
2023-01-27T05:56:32.040Z,32.75
2023-01-27T05:59:00.326Z,33.08
2023-01-27T06:01:31.308Z,31.70
2023-01-27T06:04:00.206Z,30.23
2023-01-27T06:06:30.183Z,30.63
2023-01-27T06:08:58.632Z,40.15
2023-01-27T06:11:26.715Z,39.15
2023-01-27T06:13:55.249Z,38.33
2023-01-27T06:16:24.149Z,38.55
2023-01-27T06:18:52.235Z,44.22
2023-01-27T06:21:20.900Z,41.40
2023-01-27T06:23:49.942Z,46.53
2023-01-27T06:26:19.999Z,46.75
2023-01-27T06:28:48.260Z,48.85
2023-01-27T06:31:18.585Z,54.28
2023-01-27T06:33:46.661Z,54.42
2023-01-27T06:36:17.454Z,57.63
2023-01-27T06:38:46.899Z,54.05
2023-01-27T06:41:14.689Z,50.03
2023-01-27T06:43:42.631Z,52.95
2023-01-27T06:46:10.559Z,50.08
2023-01-27T06:48:38.682Z,50.08
2023-01-27T06:51:06.737Z,41.30
2023-01-27T06:53:37.339Z,42.17
2023-01-27T06:56:06.036Z,42.67
2023-01-27T06:58:34.045Z,45.75
2023-01-27T07:01:03.775Z,39.90
2023-01-27T07:03:31.801Z,39.47
2023-01-27T07:05:59.516Z,38.05
2023-01-27T07:08:27.570Z,39.28
2023-01-27T07:10:55.252Z,39.53
2023-01-27T07:13:23.550Z,39.88
2023-01-27T07:15:56.293Z,41.60
2023-01-27T07:18:24.618Z,46.53
2023-01-27T07:20:52.517Z,48.67
2023-01-27T07:23:20.512Z,45.65
2023-01-27T07:25:48.345Z,43.28
2023-01-27T07:28:16.220Z,41.60
2023-01-27T07:30:44.217Z,43.08
2023-01-27T07:33:14.646Z,43.53
2023-01-27T07:35:42.973Z,43.17
2023-01-27T07:38:11.100Z,40.75
2023-01-27T07:40:38.935Z,40.08
2023-01-27T07:43:06.868Z,38.67
2023-01-27T07:45:37.827Z,35.05
2023-01-27T07:48:09.760Z,34.83
2023-01-27T07:50:39.164Z,34.95
2023-01-27T07:53:07.350Z,34.90
2023-01-27T07:55:35.189Z,36.47
2023-01-27T07:58:03.297Z,37.17
2023-01-27T08:00:32.032Z,34.47
2023-01-27T08:03:01.408Z,34.25
2023-01-27T08:05:32.083Z,35.53
2023-01-27T08:08:03.870Z,35.75
2023-01-27T08:10:31.899Z,37.10
2023-01-27T08:12:59.890Z,37.05
2023-01-27T08:15:27.697Z,35.35
2023-01-27T08:17:57.392Z,34.95
2023-01-27T08:20:27.427Z,32.95
2023-01-27T08:22:56.088Z,32.95
2023-01-27T08:25:24.603Z,32.85
2023-01-27T08:27:54.114Z,31.98
2023-01-27T08:30:22.682Z,30.80
2023-01-27T08:32:51.053Z,32.05
2023-01-27T08:35:19.045Z,30.52
2023-01-27T08:37:48.864Z,29.30
2023-01-27T08:40:17.611Z,26.75
2023-01-27T08:42:45.579Z,26.52
2023-01-27T08:45:13.749Z,27.23
2023-01-27T08:47:41.727Z,27.73
2023-01-27T08:50:10.787Z,27.00
2023-01-27T08:52:39.234Z,27.52
2023-01-27T08:55:07.416Z,25.05
2023-01-27T08:57:36.950Z,26.38
2023-01-27T09:00:07.211Z,25.48
2023-01-27T09:02:35.739Z,25.67
2023-01-27T09:05:04.054Z,26.85
2023-01-27T09:07:33.275Z,27.00
2023-01-27T09:10:13.720Z,26.13
2023-01-27T09:12:43.994Z,28.65
2023-01-27T09:15:12.925Z,28.45
2023-01-27T09:17:41.314Z,28.23
2023-01-27T09:20:10.570Z,31.10
2023-01-27T09:22:42.063Z,27.70
2023-01-27T09:25:14.350Z,27.58
2023-01-27T09:27:42.995Z,26.10
2023-01-27T09:30:13.225Z,26.00
2023-01-27T09:32:42.485Z,25.42
2023-01-27T09:35:10.642Z,26.27
2023-01-27T09:37:54.283Z,26.88
2023-01-27T09:40:46.498Z,24.50
2023-01-27T09:43:27.956Z,26.90
2023-01-27T09:46:04.281Z,24.70
2023-01-27T09:48:59.013Z,23.88
2023-01-27T09:51:51.594Z,26.10
2023-01-27T09:54:29.722Z,25.02
2023-01-27T09:57:18.358Z,25.10
2023-01-27T10:00:20.949Z,27.08
2023-01-27T10:03:26.469Z,25.25
2023-01-27T10:06:12.739Z,25.42
2023-01-27T10:09:07.999Z,25.75
2023-01-27T10:12:09.830Z,25.45
2023-01-27T10:15:11.039Z,25.90
2023-01-27T10:18:13.712Z,22.45
2023-01-27T10:21:09.660Z,25.50
2023-01-27T10:23:49.506Z,23.48
2023-01-27T10:26:50.076Z,24.35
2023-01-27T10:29:40.058Z,23.35
2023-01-27T10:32:38.882Z,21.65
2023-01-27T10:35:21.135Z,21.15
2023-01-27T10:38:27.122Z,21.25
2023-01-27T10:41:19.594Z,22.02
2023-01-27T10:44:05.931Z,21.48
2023-01-27T10:46:53.537Z,22.25
2023-01-27T10:49:43.232Z,22.77
2023-01-27T10:52:27.040Z,22.40
2023-01-27T10:55:07.410Z,20.92
2023-01-27T10:57:45.761Z,22.30
2023-01-27T11:03:32.511Z,20.35
2023-01-27T11:06:15.660Z,19.60
2023-01-27T11:08:50.361Z,21.65
2023-01-27T11:11:40.899Z,20.67
2023-01-27T11:14:16.605Z,19.35
2023-01-27T11:16:50.119Z,19.08
2023-01-27T11:22:06.576Z,18.08
2023-01-27T11:24:52.203Z,18.20
2023-01-27T11:27:27.890Z,19.67
2023-01-27T11:30:02.519Z,19.83
2023-01-27T11:32:59.517Z,19.63
2023-01-27T11:35:27.762Z,19.20
2023-01-27T11:38:06.365Z,20.83
2023-01-27T11:40:45.527Z,20.50
2023-01-27T11:43:26.746Z,20.02
2023-01-27T11:46:02.140Z,20.83
2023-01-27T11:48:41.445Z,19.75
2023-01-27T11:51:35.610Z,19.02
2023-01-27T11:54:18.208Z,21.20
2023-01-27T11:56:48.950Z,16.52
2023-01-27T11:59:24.525Z,18.08
2023-01-27T12:01:55.296Z,17.73
2023-01-27T12:04:25.265Z,16.05
2023-01-27T12:07:19.519Z,16.00
2023-01-27T12:09:47.277Z,15.73
2023-01-27T12:12:25.215Z,18.42
2023-01-27T12:14:54.845Z,27.33
2023-01-27T12:17:44.218Z,18.02
2023-01-27T12:20:39.301Z,17.10
2023-01-27T12:23:23.360Z,19.52
2023-01-27T12:25:58.013Z,16.55
2023-01-27T12:28:46.169Z,19.83
2023-01-27T12:31:22.896Z,20.85
2023-01-27T12:34:05.724Z,23.05
2023-01-27T12:36:44.652Z,22.55
2023-01-27T12:39:44.390Z,23.40
2023-01-27T12:42:38.685Z,23.20
2023-01-27T12:45:34.909Z,21.17
2023-01-27T12:48:23.010Z,23.88
2023-01-27T12:50:51.079Z,21.48
2023-01-27T12:53:28.129Z,24.25
2023-01-27T12:55:58.481Z,25.83
2023-01-27T12:58:31.662Z,25.02
2023-01-27T13:01:03.717Z,23.08
2023-01-27T13:03:36.232Z,23.20
2023-01-27T13:06:04.423Z,24.42
2023-01-27T13:08:34.757Z,25.30
2023-01-27T13:11:05.052Z,24.33
2023-01-27T13:13:33.742Z,26.13
2023-01-27T13:16:23.363Z,25.27
2023-01-27T13:18:57.099Z,24.92
2023-01-27T13:21:37.687Z,24.83
2023-01-27T13:24:12.925Z,28.00
2023-01-27T13:26:41.764Z,28.45
2023-01-27T13:29:09.469Z,29.33
2023-01-27T13:31:57.261Z,29.80
2023-01-27T13:34:47.311Z,31.73
2023-01-27T13:37:21.020Z,32.88
2023-01-27T13:40:03.006Z,30.40
2023-01-27T13:42:50.320Z,29.67
2023-01-27T13:45:32.679Z,29.05
2023-01-27T13:48:22.466Z,26.23
2023-01-27T13:51:15.345Z,27.83
2023-01-27T13:53:47.173Z,28.08
2023-01-27T13:56:20.977Z,29.05
2023-01-27T13:59:23.115Z,30.58
2023-01-27T14:02:05.936Z,29.80
2023-01-27T14:05:03.002Z,28.27
2023-01-27T14:07:51.463Z,29.85
2023-01-27T14:10:49.527Z,31.58
2023-01-27T14:14:02.583Z,29.27
2023-01-27T14:17:00.943Z,31.55
2023-01-27T14:19:57.858Z,32.47
2023-01-27T14:22:52.917Z,32.42
2023-01-27T14:25:23.561Z,33.10
2023-01-27T14:27:58.491Z,33.22
2023-01-27T14:30:30.107Z,31.95
2023-01-27T14:33:34.937Z,36.25
2023-01-27T14:36:11.527Z,35.00
2023-01-27T14:38:50.820Z,31.38
2023-01-27T14:41:37.173Z,34.47
2023-01-27T14:44:55.559Z,34.72
2023-01-27T14:47:51.810Z,33.05
2023-01-27T14:50:27.021Z,33.40
2023-01-27T14:53:11.544Z,34.30
2023-01-27T14:56:06.757Z,35.33
2023-01-27T14:58:46.695Z,35.08
2023-01-27T15:01:39.624Z,35.13
2023-01-27T15:04:29.202Z,34.53
2023-01-27T15:07:07.074Z,31.73
2023-01-27T15:09:59.402Z,33.15
2023-01-27T15:12:48.218Z,32.13
2023-01-27T15:15:33.983Z,34.65
2023-01-27T15:18:32.523Z,34.28
2023-01-27T15:21:37.352Z,34.15
2023-01-27T15:24:43.181Z,34.05
2023-01-27T15:27:11.208Z,34.67
2023-01-27T15:29:39.474Z,34.72
2023-01-27T15:32:17.288Z,34.70
2023-01-27T15:34:51.622Z,35.33
2023-01-27T15:37:25.164Z,36.15
2023-01-27T15:40:04.000Z,35.65
2023-01-27T15:42:51.355Z,34.53
2023-01-27T15:45:45.171Z,33.08
2023-01-27T15:48:20.188Z,34.70
2023-01-27T15:50:55.594Z,34.97
2023-01-27T15:53:44.776Z,36.65
2023-01-27T15:56:12.766Z,34.00
2023-01-27T15:58:50.853Z,34.22
2023-01-27T16:01:30.779Z,34.60
2023-01-27T16:04:21.460Z,34.30
2023-01-27T16:07:04.677Z,35.55
2023-01-27T16:09:48.834Z,36.43
2023-01-27T16:12:43.535Z,34.85
2023-01-27T16:17:59.325Z,35.20
2023-01-27T16:20:33.558Z,35.83
2023-01-27T16:23:08.441Z,35.65
2023-01-27T16:25:54.238Z,37.45
2023-01-27T16:28:27.565Z,37.15
2023-01-27T16:31:01.618Z,36.53
2023-01-27T16:33:40.256Z,39.20
2023-01-27T16:36:26.791Z,37.47
2023-01-27T16:38:59.408Z,36.88
2023-01-27T16:41:32.749Z,37.17
2023-01-27T16:44:03.410Z,39.50
2023-01-27T16:46:31.157Z,37.97
2023-01-27T16:49:01.317Z,37.42
2023-01-27T16:51:30.013Z,36.17
2023-01-27T16:54:00.654Z,39.22
2023-01-27T16:56:35.821Z,37.28
2023-01-27T16:59:10.302Z,39.00
2023-01-27T17:01:46.665Z,39.65
2023-01-27T17:04:23.132Z,38.88
2023-01-27T17:06:56.104Z,40.17
2023-01-27T17:09:27.370Z,30.83
2023-01-27T17:11:55.761Z,40.33
2023-01-27T17:14:52.140Z,39.67
2023-01-27T17:17:20.980Z,39.45
2023-01-27T17:19:51.849Z,39.33
2023-01-27T17:22:41.172Z,41.90
2023-01-27T17:25:22.605Z,40.05
2023-01-27T17:27:50.407Z,43.10
2023-01-27T17:30:24.088Z,43.22
2023-01-27T17:32:57.799Z,43.67
2023-01-27T17:38:16.048Z,41.80
2023-01-27T17:40:45.837Z,43.72
2023-01-27T17:43:39.114Z,45.08
2023-01-27T17:46:14.303Z,45.25
2023-01-27T17:49:18.183Z,44.65
2023-01-27T17:51:52.094Z,42.17
2023-01-27T17:54:33.443Z,45.13
2023-01-27T17:57:21.178Z,44.08
2023-01-27T17:59:51.826Z,44.95
2023-01-27T18:02:25.439Z,43.67
2023-01-27T18:04:57.270Z,47.15
2023-01-27T18:07:25.609Z,49.15
2023-01-27T18:09:55.979Z,48.28
2023-01-27T18:12:33.986Z,47.65
2023-01-27T18:15:39.883Z,48.60
2023-01-27T18:18:22.477Z,48.70
2023-01-27T18:21:09.183Z,48.83
2023-01-27T18:23:38.527Z,49.00
2023-01-27T18:26:24.086Z,47.08
2023-01-27T18:29:31.904Z,48.72
2023-01-27T18:32:17.058Z,47.58
2023-01-27T18:34:48.287Z,46.78
2023-01-27T18:37:36.386Z,45.10
2023-01-27T18:40:28.066Z,49.67
2023-01-27T18:42:57.038Z,51.33
2023-01-27T18:45:26.127Z,45.75
2023-01-27T18:47:54.392Z,47.00
2023-01-27T18:50:25.054Z,45.70
2023-01-27T18:52:53.770Z,49.45
2023-01-27T18:55:29.464Z,49.65
2023-01-27T18:57:59.683Z,50.67
2023-01-27T19:00:36.000Z,52.15
2023-01-27T19:03:07.585Z,52.47
2023-01-27T19:05:36.699Z,55.90
2023-01-27T19:08:05.100Z,56.72
2023-01-27T19:10:34.696Z,50.90
2023-01-27T19:13:03.853Z,52.10
2023-01-27T19:15:35.121Z,52.88
2023-01-27T19:18:23.058Z,56.15
2023-01-27T19:20:52.343Z,57.00
2023-01-27T19:23:20.982Z,56.35
2023-01-27T19:25:53.360Z,51.47
2023-01-27T19:28:31.153Z,49.67
2023-01-27T19:31:00.197Z,49.20
2023-01-27T19:33:29.516Z,50.33
2023-01-27T19:36:16.818Z,50.35
2023-01-27T19:38:44.540Z,47.42
2023-01-27T19:41:12.558Z,47.85
2023-01-27T19:43:41.953Z,47.40
2023-01-27T19:46:22.123Z,45.95
2023-01-27T19:48:49.972Z,48.47
2023-01-27T19:51:18.913Z,48.80
2023-01-27T19:53:47.419Z,51.97
2023-01-27T19:56:18.809Z,52.40
2023-01-27T19:58:51.479Z,50.15
2023-01-27T20:01:20.545Z,47.65
2023-01-27T20:03:48.817Z,46.47
2023-01-27T20:06:25.339Z,47.60
2023-01-27T20:08:59.541Z,47.95
2023-01-27T20:11:35.795Z,47.30
2023-01-27T20:14:06.331Z,48.95
2023-01-27T20:16:34.490Z,47.90
2023-01-27T20:19:02.208Z,50.65
2023-01-27T20:21:34.519Z,50.97
2023-01-27T20:24:02.800Z,48.55
2023-01-27T20:26:32.456Z,48.97
2023-01-27T20:29:00.617Z,49.97
2023-01-27T20:31:28.817Z,47.30
2023-01-27T20:33:56.611Z,49.80
2023-01-27T20:36:24.838Z,49.83
2023-01-27T20:38:52.931Z,50.97
2023-01-27T20:41:23.986Z,48.35
2023-01-27T20:44:00.618Z,51.10
2023-01-27T20:46:29.850Z,52.70
2023-01-27T20:48:59.556Z,52.47
2023-01-27T20:51:27.556Z,48.20
2023-01-27T20:53:55.305Z,55.95
2023-01-27T20:56:24.616Z,58.63
2023-01-27T20:58:52.442Z,51.92
2023-01-27T21:01:22.785Z,55.08
2023-01-27T21:03:50.933Z,57.03
2023-01-27T21:06:20.123Z,58.80
2023-01-27T21:08:49.834Z,62.75
2023-01-27T21:11:20.603Z,82.95
2023-01-27T21:13:49.932Z,79.90
2023-01-27T21:16:18.331Z,64.47
2023-01-27T21:18:46.231Z,68.47
2023-01-27T21:21:29.401Z,60.70
2023-01-27T21:24:00.040Z,53.33
2023-01-27T21:26:28.403Z,66.82
2023-01-27T21:28:57.254Z,51.97
2023-01-27T21:31:30.042Z,55.53
2023-01-27T21:34:01.302Z,56.28
2023-01-27T21:36:29.398Z,43.55
2023-01-27T21:38:57.829Z,45.63
2023-01-27T21:41:44.926Z,47.63
2023-01-27T21:44:40.318Z,42.30
2023-01-27T21:47:17.555Z,40.70
2023-01-27T21:50:02.227Z,41.05
2023-01-27T21:52:39.274Z,39.88
2023-01-27T21:55:18.322Z,38.53
2023-01-27T21:57:48.614Z,37.90
2023-01-27T22:00:18.782Z,38.05
2023-01-27T22:03:03.281Z,36.83
2023-01-27T22:05:33.038Z,34.38
2023-01-27T22:08:02.100Z,34.97
2023-01-27T22:10:30.741Z,31.55
2023-01-27T22:13:01.369Z,32.63
2023-01-27T22:15:29.164Z,31.15
2023-01-27T22:17:58.662Z,33.22
2023-01-27T22:20:27.442Z,32.40
2023-01-27T22:22:55.692Z,27.88
2023-01-27T22:25:24.834Z,31.40
2023-01-27T22:27:55.395Z,30.13
2023-01-27T22:30:23.752Z,29.40
2023-01-27T22:32:52.023Z,29.58
2023-01-27T22:35:19.843Z,28.00
2023-01-27T22:37:49.199Z,29.27
2023-01-27T22:40:17.367Z,29.20
2023-01-27T22:42:45.462Z,31.58
2023-01-27T22:45:13.729Z,27.60
2023-01-27T22:47:42.030Z,29.25
2023-01-27T22:50:10.522Z,29.30
2023-01-27T22:52:39.623Z,30.52
2023-01-27T22:55:10.451Z,28.95
2023-01-27T22:57:39.111Z,30.17
2023-01-27T23:00:07.673Z,30.38
2023-01-27T23:02:36.927Z,27.63
2023-01-27T23:05:05.062Z,30.15
2023-01-27T23:07:33.158Z,29.33
2023-01-27T23:10:00.837Z,30.77
2023-01-27T23:12:28.801Z,28.30
2023-01-27T23:14:59.019Z,28.48
2023-01-27T23:17:27.349Z,29.02
2023-01-27T23:19:54.990Z,30.08
2023-01-27T23:22:22.988Z,28.33
2023-01-27T23:24:50.671Z,28.98
2023-01-27T23:27:19.189Z,29.27
2023-01-27T23:29:47.103Z,29.92
2023-01-27T23:32:15.219Z,29.63
2023-01-27T23:34:43.047Z,28.58
2023-01-27T23:37:11.094Z,27.08
2023-01-27T23:39:38.832Z,27.92
2023-01-27T23:42:06.898Z,28.23
2023-01-27T23:44:34.565Z,28.40
2023-01-27T23:47:02.579Z,28.20
2023-01-27T23:49:30.489Z,26.73
2023-01-27T23:51:58.467Z,28.58
2023-01-27T23:54:26.133Z,27.20
2023-01-27T23:56:54.046Z,27.15
2023-01-27T23:59:21.683Z,27.23
